createdAt,value
2023-05-21T00:00:57.353Z,100599.97
2023-05-21T00:02:04.361Z,100606.34
2023-05-21T00:03:14.312Z,100597.50
2023-05-21T00:04:17.896Z,100594.72
2023-05-21T00:05:21.658Z,100599.69
2023-05-21T00:06:24.011Z,100594.16
2023-05-21T00:07:26.343Z,100595.25
2023-05-21T00:08:29.133Z,100596.38
2023-05-21T00:09:31.831Z,100594.72
2023-05-21T00:10:34.540Z,100593.03
2023-05-21T00:11:36.978Z,100595.00
2023-05-21T00:12:39.394Z,100590.53
2023-05-21T00:13:41.733Z,100588.06
2023-05-21T00:14:44.391Z,100586.66
2023-05-21T00:15:46.763Z,100586.91
2023-05-21T00:16:49.785Z,100586.91
2023-05-21T00:17:52.289Z,100585.00
2023-05-21T00:18:54.814Z,100586.38
2023-05-21T00:19:57.229Z,100579.16
2023-05-21T00:20:59.572Z,100581.94
2023-05-21T00:22:04.794Z,100590.25
2023-05-21T00:23:07.282Z,100587.19
2023-05-21T00:24:09.673Z,100589.97
2023-05-21T00:25:12.384Z,100583.88
2023-05-21T00:26:14.685Z,100585.81
2023-05-21T00:27:17.814Z,100583.31
2023-05-21T00:28:20.090Z,100580.81
2023-05-21T00:29:23.088Z,100582.78
2023-05-21T00:30:25.769Z,100578.63
2023-05-21T00:31:28.273Z,100583.31
2023-05-21T00:32:31.022Z,100576.94
2023-05-21T00:33:37.173Z,100578.06
2023-05-21T00:34:39.577Z,100577.47
2023-05-21T00:35:42.061Z,100576.09
2023-05-21T00:36:45.994Z,100574.44
2023-05-21T00:37:50.407Z,100576.38
2023-05-21T00:38:52.914Z,100573.06
2023-05-21T00:39:57.569Z,100574.16
2023-05-21T00:41:02.816Z,100570.81
2023-05-21T00:42:05.417Z,100576.66
2023-05-21T00:43:10.412Z,100566.66
2023-05-21T00:44:14.202Z,100566.66
2023-05-21T00:45:16.815Z,100563.31
2023-05-21T00:46:21.116Z,100567.19
2023-05-21T00:47:23.744Z,100559.13
2023-05-21T00:48:26.414Z,100560.25
2023-05-21T00:49:30.120Z,100558.56
2023-05-21T00:50:33.689Z,100556.91
2023-05-21T00:51:36.463Z,100563.59
2023-05-21T00:52:42.425Z,100563.84
2023-05-21T00:53:45.622Z,100559.41
2023-05-21T00:54:49.872Z,100561.63
2023-05-21T00:55:52.298Z,100553.28
2023-05-21T00:56:55.155Z,100558.84
2023-05-21T00:57:57.435Z,100555.53
2023-05-21T00:58:59.974Z,100552.19
2023-05-21T01:00:02.344Z,100551.38
2023-05-21T01:01:07.344Z,100554.13
2023-05-21T01:02:09.814Z,100553.56
2023-05-21T01:03:12.654Z,100556.63
2023-05-21T01:04:15.098Z,100553.84
2023-05-21T01:05:18.199Z,100547.72
2023-05-21T01:06:21.470Z,100538.88
2023-05-21T01:07:23.787Z,100543.56
2023-05-21T01:08:29.105Z,100552.16
2023-05-21T01:09:31.674Z,100551.34
2023-05-21T01:10:35.098Z,100548.00
2023-05-21T01:11:41.374Z,100543.56
2023-05-21T01:12:44.604Z,100551.34
2023-05-21T01:13:49.671Z,100547.72
2023-05-21T01:14:52.741Z,100547.16
2023-05-21T01:15:55.405Z,100543.00
2023-05-21T01:16:58.690Z,100546.59
2023-05-21T01:18:01.188Z,100537.72
2023-05-21T01:19:05.625Z,100542.72
2023-05-21T01:20:10.458Z,100540.75
2023-05-21T01:21:13.856Z,100533.28
2023-05-21T01:22:18.920Z,100538.25
2023-05-21T01:23:21.777Z,100540.22
2023-05-21T01:24:24.765Z,100540.47
2023-05-21T01:25:27.371Z,100543.50
2023-05-21T01:26:30.774Z,100540.47
2023-05-21T01:27:33.080Z,100541.00
2023-05-21T01:28:35.401Z,100541.00
2023-05-21T01:29:37.736Z,100536.03
2023-05-21T01:30:42.756Z,100530.75
2023-05-21T01:32:11.848Z,100539.31
2023-05-21T01:33:23.444Z,100528.22
2023-05-21T01:34:48.704Z,100535.19
2023-05-21T01:35:56.280Z,100534.34
2023-05-21T01:37:14.198Z,100528.78
2023-05-21T01:38:25.104Z,100531.03
2023-05-21T01:39:33.061Z,100523.81
2023-05-21T01:40:59.145Z,100520.47
2023-05-21T01:42:05.830Z,100520.72
2023-05-21T01:43:09.674Z,100517.16
2023-05-21T01:44:13.236Z,100516.28
2023-05-21T01:45:17.803Z,100509.91
2023-05-21T01:46:25.942Z,100514.63
2023-05-21T01:47:30.513Z,100517.38
2023-05-21T01:48:33.230Z,100514.91
2023-05-21T01:49:35.962Z,100521.53
2023-05-21T01:50:40.761Z,100514.34
2023-05-21T01:51:44.138Z,100515.44
2023-05-21T01:52:51.729Z,100515.72
2023-05-21T01:53:54.554Z,100510.19
2023-05-21T01:54:57.928Z,100519.59
2023-05-21T01:56:00.918Z,100516.81
2023-05-21T01:57:04.039Z,100518.50
2023-05-21T01:58:06.536Z,100517.66
2023-05-21T01:59:09.189Z,100522.38
2023-05-21T02:00:12.844Z,100518.75
2023-05-21T02:01:18.062Z,100515.97
2023-05-21T02:02:20.443Z,100517.94
2023-05-21T02:03:26.983Z,100520.69
2023-05-21T02:04:29.901Z,100510.72
2023-05-21T02:05:32.418Z,100518.22
2023-05-21T02:06:37.100Z,100511.81
2023-05-21T02:07:40.567Z,100511.81
2023-05-21T02:08:42.925Z,100508.22
2023-05-21T02:09:45.547Z,100504.63
2023-05-21T02:10:47.872Z,100510.44
2023-05-21T02:11:50.184Z,100509.59
2023-05-21T02:12:52.675Z,100516.00
2023-05-21T02:13:56.339Z,100510.69
2023-05-21T02:14:58.712Z,100505.16
2023-05-21T02:16:01.837Z,100507.09
2023-05-21T02:17:04.333Z,100513.75
2023-05-21T02:18:06.720Z,100510.16
2023-05-21T02:19:10.703Z,100509.06
2023-05-21T02:20:14.042Z,100506.53
2023-05-21T02:21:16.559Z,100505.72
2023-05-21T02:22:18.914Z,100516.78
2023-05-21T02:23:21.433Z,100502.94
2023-05-21T02:24:25.657Z,100502.13
2023-05-21T02:25:28.010Z,100501.25
2023-05-21T02:26:30.425Z,100507.66
2023-05-21T02:27:35.387Z,100506.81
2023-05-21T02:28:38.902Z,100506.81
2023-05-21T02:29:41.439Z,100505.97
2023-05-21T02:30:43.871Z,100507.91
2023-05-21T02:31:46.556Z,100509.56
2023-05-21T02:32:50.092Z,100505.97
2023-05-21T02:33:52.421Z,100507.91
2023-05-21T02:34:54.758Z,100506.25
2023-05-21T02:35:57.264Z,100509.03
2023-05-21T02:36:59.576Z,100509.03
2023-05-21T02:38:03.291Z,100501.81
2023-05-21T02:39:05.918Z,100507.34
2023-05-21T02:40:10.397Z,100503.72
2023-05-21T02:41:12.930Z,100500.13
2023-05-21T02:42:15.418Z,100496.56
2023-05-21T02:43:18.279Z,100497.38
2023-05-21T02:44:21.120Z,100500.41
2023-05-21T02:45:23.585Z,100505.13
2023-05-21T02:46:26.178Z,100498.75
2023-05-21T02:47:30.629Z,100500.69
2023-05-21T02:48:33.163Z,100497.06
2023-05-21T02:49:35.665Z,100493.47
2023-05-21T02:50:38.138Z,100503.72
2023-05-21T02:51:40.740Z,100501.22
2023-05-21T02:52:43.374Z,100492.09
2023-05-21T02:53:45.782Z,100495.69
2023-05-21T02:54:48.815Z,100499.56
2023-05-21T02:55:51.300Z,100496.22
2023-05-21T02:56:53.566Z,100489.00
2023-05-21T02:57:56.046Z,100492.88
2023-05-21T02:58:58.441Z,100494.56
2023-05-21T03:00:01.111Z,100495.66
2023-05-21T03:01:03.959Z,100487.63
2023-05-21T03:02:06.854Z,100497.88
2023-05-21T03:03:09.308Z,100494.25
2023-05-21T03:04:11.937Z,100494.25
2023-05-21T03:05:14.320Z,100493.44
2023-05-21T03:06:16.925Z,100491.75
2023-05-21T03:07:20.153Z,100479.81
2023-05-21T03:08:22.731Z,100496.47
2023-05-21T03:09:25.097Z,100493.97
2023-05-21T03:10:27.513Z,100492.28
2023-05-21T03:11:29.817Z,100487.84
2023-05-21T03:12:32.193Z,100489.53
2023-05-21T03:13:35.233Z,100486.75
2023-05-21T03:14:39.378Z,100489.53
2023-05-21T03:15:42.006Z,100487.84
2023-05-21T03:16:44.923Z,100489.78
2023-05-21T03:17:48.552Z,100488.13
2023-05-21T03:18:50.988Z,100484.78
2023-05-21T03:19:55.134Z,100483.94
2023-05-21T03:20:59.195Z,100485.06
2023-05-21T03:22:02.938Z,100487.81
2023-05-21T03:23:06.061Z,100486.16
2023-05-21T03:24:09.880Z,100491.69
2023-05-21T03:25:13.018Z,100481.69
2023-05-21T03:26:15.831Z,100479.78
2023-05-21T03:27:18.372Z,100480.88
2023-05-21T03:28:21.561Z,100484.47
2023-05-21T03:29:25.679Z,100486.16
2023-05-21T03:30:28.396Z,100485.31
2023-05-21T03:32:05.515Z,100488.38
2023-05-21T03:33:08.837Z,100490.28
2023-05-21T03:34:11.703Z,100486.69
2023-05-21T03:35:14.045Z,100494.16
2023-05-21T03:36:17.928Z,100492.25
2023-05-21T03:37:20.352Z,100493.34
2023-05-21T03:38:24.075Z,100495.28
2023-05-21T03:39:26.564Z,100494.44
2023-05-21T03:40:31.023Z,100494.44
2023-05-21T03:41:33.527Z,100499.69
2023-05-21T03:42:45.382Z,100499.97
2023-05-21T03:43:47.976Z,100488.91
2023-05-21T03:44:50.349Z,100491.66
2023-05-21T03:46:11.225Z,100493.34
2023-05-21T03:47:13.668Z,100495.28
2023-05-21T03:48:16.210Z,100492.53
2023-05-21T03:49:18.601Z,100493.34
2023-05-21T03:50:20.925Z,100494.16
2023-05-21T03:51:23.283Z,100489.47
2023-05-21T03:52:25.693Z,100491.16
2023-05-21T03:53:28.073Z,100495.84
2023-05-21T03:54:30.532Z,100498.59
2023-05-21T03:55:37.717Z,100503.31
2023-05-21T03:56:40.807Z,100500.56
2023-05-21T03:57:43.243Z,100501.94
2023-05-21T03:58:45.989Z,100503.06
2023-05-21T03:59:48.345Z,100507.50
2023-05-21T04:00:51.553Z,100503.88
2023-05-21T04:01:54.272Z,100495.31
2023-05-21T04:02:57.033Z,100498.09
2023-05-21T04:03:59.575Z,100501.69
2023-05-21T04:05:03.576Z,100500.56
2023-05-21T04:06:06.065Z,100502.50
2023-05-21T04:07:15.597Z,100500.56
2023-05-21T04:08:18.039Z,100491.16
2023-05-21T04:09:20.421Z,100490.63
2023-05-21T04:10:23.289Z,100498.09
2023-05-21T04:11:26.394Z,100491.72
2023-05-21T04:12:28.712Z,100505.03
2023-05-21T04:13:31.080Z,100494.78
2023-05-21T04:14:34.371Z,100513.94
2023-05-21T04:15:36.940Z,100511.75
2023-05-21T04:16:39.884Z,100500.66
2023-05-21T04:17:42.231Z,100500.66
2023-05-21T04:18:45.900Z,100503.97
2023-05-21T04:19:49.336Z,100496.50
2023-05-21T04:20:52.066Z,100497.06
2023-05-21T04:21:54.410Z,100511.50
2023-05-21T04:22:56.992Z,100503.16
2023-05-21T04:24:01.054Z,100504.56
2023-05-21T04:25:12.438Z,100507.88
2023-05-21T04:26:16.465Z,100504.88
2023-05-21T04:27:19.450Z,100505.69
2023-05-21T04:28:21.888Z,100502.34
2023-05-21T04:29:26.089Z,100510.16
2023-05-21T04:30:28.529Z,100506.28
2023-05-21T04:31:33.062Z,100505.72
2023-05-21T04:32:36.280Z,100506.25
2023-05-21T04:33:38.642Z,100502.97
2023-05-21T04:34:40.979Z,100509.63
2023-05-21T04:35:44.783Z,100509.06
2023-05-21T04:36:48.965Z,100507.44
2023-05-21T04:37:52.394Z,100509.66
2023-05-21T04:38:55.336Z,100510.78
2023-05-21T04:39:58.124Z,100516.31
2023-05-21T04:41:04.152Z,100510.22
2023-05-21T04:42:11.188Z,100513.56
2023-05-21T04:43:14.197Z,100523.59
2023-05-21T04:44:16.573Z,100516.91
2023-05-21T04:45:21.356Z,100511.13
2023-05-21T04:46:25.574Z,100506.97
2023-05-21T04:47:30.575Z,100507.78
2023-05-21T04:48:33.077Z,100515.81
2023-05-21T04:49:35.431Z,100515.56
2023-05-21T04:50:37.777Z,100513.09
2023-05-21T04:51:40.212Z,100519.16
2023-05-21T04:52:42.755Z,100520.31
2023-05-21T04:53:45.072Z,100512.50
2023-05-21T04:54:48.420Z,100512.47
2023-05-21T04:55:50.772Z,100514.66
2023-05-21T04:56:53.553Z,100509.09
2023-05-21T04:57:55.990Z,100506.56
2023-05-21T04:58:59.064Z,100503.75
2023-05-21T05:00:02.097Z,100513.72
2023-05-21T05:01:09.683Z,100509.81
2023-05-21T05:02:11.996Z,100497.81
2023-05-21T05:03:16.494Z,100506.63
2023-05-21T05:04:19.624Z,100504.34
2023-05-21T05:05:21.965Z,100504.28
2023-05-21T05:06:26.097Z,100505.84
2023-05-21T05:07:31.630Z,100500.22
2023-05-21T05:08:34.214Z,100503.47
2023-05-21T05:09:36.553Z,100507.00
2023-05-21T05:10:39.124Z,100511.41
2023-05-21T05:11:41.735Z,100506.84
2023-05-21T05:12:44.426Z,100502.00
2023-05-21T05:13:48.127Z,100502.47
2023-05-21T05:14:50.617Z,100501.50
2023-05-21T05:15:54.812Z,100496.69
2023-05-21T05:17:00.934Z,100501.84
2023-05-21T05:18:07.028Z,100501.41
2023-05-21T05:19:09.615Z,100502.13
2023-05-21T05:20:13.784Z,100495.59
2023-05-21T05:21:16.333Z,100498.22
2023-05-21T05:22:18.652Z,100498.09
2023-05-21T05:23:22.975Z,100497.44
2023-05-21T05:24:26.285Z,100492.00
2023-05-21T05:25:28.579Z,100500.22
2023-05-21T05:26:30.943Z,100497.28
2023-05-21T05:27:33.526Z,100504.69
2023-05-21T05:28:38.126Z,100500.09
2023-05-21T05:29:40.771Z,100497.94
2023-05-21T05:30:43.108Z,100497.25
2023-05-21T05:31:57.382Z,100497.06
2023-05-21T05:33:00.178Z,100488.00
2023-05-21T05:34:02.689Z,100488.94
2023-05-21T05:35:05.800Z,100486.56
2023-05-21T05:36:11.783Z,100488.34
2023-05-21T05:37:14.202Z,100489.28
2023-05-21T05:38:17.406Z,100489.41
2023-05-21T05:39:19.735Z,100489.22
2023-05-21T05:40:24.052Z,100480.75
2023-05-21T05:41:27.136Z,100481.97
2023-05-21T05:42:30.844Z,100492.09
2023-05-21T05:43:34.862Z,100482.78
2023-05-21T05:44:37.411Z,100474.78
2023-05-21T05:45:39.991Z,100480.28
2023-05-21T05:46:47.530Z,100472.28
2023-05-21T05:47:50.055Z,100474.66
2023-05-21T05:48:52.393Z,100479.00
2023-05-21T05:49:55.070Z,100472.13
2023-05-21T05:50:58.036Z,100475.66
2023-05-21T05:52:01.812Z,100473.56
2023-05-21T05:53:04.151Z,100476.78
2023-05-21T05:54:06.764Z,100478.59
2023-05-21T05:55:14.466Z,100474.88
2023-05-21T05:56:19.935Z,100478.34
2023-05-21T05:57:23.822Z,100477.72
2023-05-21T05:58:30.123Z,100473.66
2023-05-21T05:59:43.095Z,100475.66
2023-05-21T06:00:47.107Z,100470.78
2023-05-21T06:01:55.632Z,100475.94
2023-05-21T06:02:58.168Z,100475.78
2023-05-21T06:04:00.982Z,100468.91
2023-05-21T06:05:07.680Z,100474.06
2023-05-21T06:06:10.237Z,100469.50
2023-05-21T06:07:12.750Z,100471.81
2023-05-21T06:08:16.234Z,100474.16
2023-05-21T06:09:18.634Z,100473.69
2023-05-21T06:10:21.097Z,100475.22
2023-05-21T06:11:25.801Z,100472.78
2023-05-21T06:12:29.375Z,100475.13
2023-05-21T06:13:32.293Z,100483.06
2023-05-21T06:14:34.653Z,100474.50
2023-05-21T06:15:37.188Z,100474.81
2023-05-21T06:16:39.959Z,100463.97
2023-05-21T06:17:42.451Z,100471.09
2023-05-21T06:18:47.489Z,100469.31
2023-05-21T06:19:49.970Z,100468.31
2023-05-21T06:20:52.454Z,100474.63
2023-05-21T06:21:56.297Z,100462.72
2023-05-21T06:22:58.663Z,100470.16
2023-05-21T06:24:01.965Z,100475.13
2023-05-21T06:25:06.123Z,100468.53
2023-05-21T06:26:08.546Z,100472.31
2023-05-21T06:27:11.216Z,100466.88
2023-05-21T06:28:14.459Z,100467.03
2023-05-21T06:29:17.645Z,100465.25
2023-05-21T06:30:21.860Z,100469.03
2023-05-21T06:31:24.834Z,100471.69
2023-05-21T06:32:27.343Z,100472.66
2023-05-21T06:33:29.907Z,100466.03
2023-05-21T06:34:32.783Z,100463.41
2023-05-21T06:35:37.578Z,100470.34
2023-05-21T06:36:40.478Z,100465.69
2023-05-21T06:37:43.461Z,100461.94
2023-05-21T06:38:45.827Z,100467.22
2023-05-21T06:39:48.261Z,100471.34
2023-05-21T06:40:50.670Z,100471.19
2023-05-21T06:42:07.020Z,100474.16
2023-05-21T06:43:29.372Z,100470.66
2023-05-21T06:44:50.943Z,100470.84
2023-05-21T06:46:05.664Z,100472.63
2023-05-21T06:47:13.468Z,100473.94
2023-05-21T06:48:19.002Z,100476.94
2023-05-21T06:49:23.071Z,100470.97
2023-05-21T06:50:25.488Z,100480.72
2023-05-21T06:51:28.322Z,100473.59
2023-05-21T06:52:31.968Z,100470.44
2023-05-21T06:53:36.090Z,100472.59
2023-05-21T06:54:38.655Z,100477.06
2023-05-21T06:55:45.644Z,100472.78
2023-05-21T06:56:56.361Z,100468.78
2023-05-21T06:57:59.108Z,100472.91
2023-05-21T06:59:01.801Z,100468.94
2023-05-21T07:00:05.893Z,100471.41
2023-05-21T07:01:10.172Z,100465.47
2023-05-21T07:02:14.176Z,100465.47
2023-05-21T07:03:17.491Z,100470.75
2023-05-21T07:04:20.092Z,100468.75
2023-05-21T07:05:22.672Z,100472.41
2023-05-21T07:06:24.985Z,100470.41
2023-05-21T07:07:27.809Z,100467.25
2023-05-21T07:08:31.490Z,100473.72
2023-05-21T07:09:34.603Z,100471.72
2023-05-21T07:10:37.019Z,100470.56
2023-05-21T07:11:40.880Z,100467.75
2023-05-21T07:12:44.706Z,100469.38
2023-05-21T07:13:48.380Z,100466.25
2023-05-21T07:14:51.342Z,100471.53
2023-05-21T07:15:54.958Z,100474.00
2023-05-21T07:16:57.343Z,100476.47
2023-05-21T07:18:01.245Z,100464.06
2023-05-21T07:19:03.631Z,100470.22
2023-05-21T07:20:07.982Z,100475.53
2023-05-21T07:21:11.333Z,100469.22
2023-05-21T07:22:13.920Z,100471.69
2023-05-21T07:23:17.441Z,100477.00
2023-05-21T07:24:21.562Z,100477.13
2023-05-21T07:25:24.096Z,100479.28
2023-05-21T07:26:26.885Z,100472.16
2023-05-21T07:27:29.760Z,100475.09
2023-05-21T07:28:32.300Z,100476.09
2023-05-21T07:29:35.497Z,100464.13
2023-05-21T07:30:37.948Z,100468.75
2023-05-21T07:31:44.860Z,100464.22
2023-05-21T07:32:47.229Z,100473.66
2023-05-21T07:33:50.020Z,100465.03
2023-05-21T07:34:54.478Z,100458.00
2023-05-21T07:35:59.284Z,100463.44
2023-05-21T07:37:01.656Z,100471.06
2023-05-21T07:38:04.153Z,100460.41
2023-05-21T07:39:06.774Z,100462.66
2023-05-21T07:40:11.141Z,100460.94
2023-05-21T07:41:13.746Z,100454.75
2023-05-21T07:42:16.285Z,100462.34
2023-05-21T07:43:20.137Z,100460.94
2023-05-21T07:44:22.482Z,100462.38
2023-05-21T07:45:27.531Z,100469.91
2023-05-21T07:46:30.179Z,100464.56
2023-05-21T07:47:33.678Z,100455.56
2023-05-21T07:48:36.281Z,100462.44
2023-05-21T07:49:40.062Z,100461.84
2023-05-21T07:50:43.091Z,100460.56
2023-05-21T07:51:45.919Z,100457.66
2023-05-21T07:52:48.714Z,100456.72
2023-05-21T07:53:54.447Z,100455.81
2023-05-21T07:55:03.270Z,100461.84
2023-05-21T07:56:09.240Z,100461.38
2023-05-21T07:57:11.618Z,100464.09
2023-05-21T07:58:23.809Z,100458.31
2023-05-21T07:59:26.188Z,100455.88
2023-05-21T08:00:28.877Z,100458.22
2023-05-21T08:01:37.672Z,100457.25
2023-05-21T08:02:40.515Z,100451.59
2023-05-21T08:03:44.121Z,100459.25
2023-05-21T08:04:46.635Z,100455.06
2023-05-21T08:05:51.058Z,100457.88
2023-05-21T08:06:54.107Z,100460.16
2023-05-21T08:07:56.868Z,100455.66
2023-05-21T08:09:00.606Z,100457.63
2023-05-21T08:10:03.667Z,100459.56
2023-05-21T08:11:07.189Z,100452.22
2023-05-21T08:12:10.551Z,100469.94
2023-05-21T08:13:13.431Z,100466.56
2023-05-21T08:14:15.954Z,100461.56
2023-05-21T08:15:18.426Z,100473.63
2023-05-21T08:16:23.639Z,100460.91
2023-05-21T08:17:26.305Z,100462.81
2023-05-21T08:18:28.792Z,100463.91
2023-05-21T08:19:32.781Z,100467.88
2023-05-21T08:20:35.793Z,100460.88
2023-05-21T08:21:38.358Z,100468.41
2023-05-21T08:22:41.456Z,100469.88
2023-05-21T08:23:44.619Z,100471.75
2023-05-21T08:24:49.695Z,100465.13
2023-05-21T08:25:53.565Z,100473.03
2023-05-21T08:26:56.736Z,100463.56
2023-05-21T08:27:59.535Z,100462.50
2023-05-21T08:29:02.563Z,100461.06
2023-05-21T08:30:06.174Z,100456.34
2023-05-21T08:31:08.540Z,100456.56
2023-05-21T08:32:12.132Z,100464.47
2023-05-21T08:33:15.256Z,100461.38
2023-05-21T08:34:18.800Z,100459.13
2023-05-21T08:35:32.317Z,100462.94
2023-05-21T08:36:46.318Z,100457.84
2023-05-21T08:38:08.553Z,100455.66
2023-05-21T08:39:36.955Z,100459.44
2023-05-21T08:40:39.678Z,100457.97
2023-05-21T08:41:46.664Z,100458.91
2023-05-21T08:42:50.056Z,100457.81
2023-05-21T08:44:00.455Z,100461.97
2023-05-21T08:45:05.523Z,100456.44
2023-05-21T08:46:10.183Z,100455.31
2023-05-21T08:47:19.038Z,100459.13
2023-05-21T08:48:23.770Z,100461.69
2023-05-21T08:49:31.079Z,100460.16
2023-05-21T08:50:33.560Z,100450.13
2023-05-21T08:51:41.950Z,100444.97
2023-05-21T08:52:44.403Z,100450.34
2023-05-21T08:53:47.192Z,100447.16
2023-05-21T08:54:53.417Z,100456.66
2023-05-21T08:55:57.473Z,100451.03
2023-05-21T08:57:06.194Z,100451.53
2023-05-21T08:58:13.870Z,100457.31
2023-05-21T08:59:18.626Z,100452.06
2023-05-21T09:00:23.088Z,100445.63
2023-05-21T09:01:27.922Z,100447.31
2023-05-21T09:02:44.223Z,100456.31
2023-05-21T09:03:47.523Z,100453.13
2023-05-21T09:04:50.347Z,100451.56
2023-05-21T09:05:53.947Z,100450.81
2023-05-21T09:06:58.254Z,100454.94
2023-05-21T09:08:31.423Z,100448.88
2023-05-21T09:09:58.554Z,100445.69
2023-05-21T09:11:05.508Z,100451.41
2023-05-21T09:12:13.447Z,100451.47
2023-05-21T09:13:18.149Z,100446.59
2023-05-21T09:14:21.672Z,100454.38
2023-05-21T09:15:35.351Z,100445.44
2023-05-21T09:16:37.736Z,100448.72
2023-05-21T09:17:40.236Z,100453.22
2023-05-21T09:18:59.627Z,100447.94
2023-05-21T09:20:15.186Z,100450.41
2023-05-21T09:21:32.037Z,100453.28
2023-05-21T09:22:50.768Z,100446.75
2023-05-21T09:23:58.513Z,100446.38
2023-05-21T09:25:05.311Z,100441.06
2023-05-21T09:26:13.007Z,100443.50
2023-05-21T09:27:18.632Z,100437.81
2023-05-21T09:28:21.253Z,100438.63
2023-05-21T09:29:26.534Z,100440.72
2023-05-21T09:30:31.832Z,100438.69
2023-05-21T09:31:37.091Z,100439.91
2023-05-21T09:32:40.419Z,100436.66
2023-05-21T09:33:50.426Z,100435.03
2023-05-21T09:34:54.718Z,100428.50
2023-05-21T09:35:57.246Z,100423.63
2023-05-21T09:37:03.655Z,100433.81
2023-05-21T09:38:10.280Z,100428.50
2023-05-21T09:39:27.450Z,100432.19
2023-05-21T09:40:29.896Z,100432.56
2023-05-21T09:41:36.571Z,100434.19
2023-05-21T09:42:41.085Z,100429.72
2023-05-21T09:43:44.716Z,100428.91
2023-05-21T09:44:48.137Z,100430.94
2023-05-21T09:45:52.225Z,100426.84
2023-05-21T09:47:05.740Z,100427.25
2023-05-21T09:48:08.197Z,100437.03
2023-05-21T09:49:25.058Z,100437.81
2023-05-21T09:50:28.734Z,100426.38
2023-05-21T09:51:32.761Z,100428.84
2023-05-21T09:52:37.859Z,100433.72
2023-05-21T09:53:54.353Z,100432.91
2023-05-21T09:54:57.799Z,100438.19
2023-05-21T09:56:00.264Z,100431.69
2023-05-21T09:57:03.161Z,100433.72
2023-05-21T09:58:06.252Z,100431.69
2023-05-21T09:59:08.603Z,100426.78
2023-05-21T10:00:21.446Z,100420.28
2023-05-21T10:01:25.069Z,100439.03
2023-05-21T10:02:30.255Z,100424.75
2023-05-21T10:03:38.853Z,100425.16
2023-05-21T10:04:44.909Z,100432.50
2023-05-21T10:05:47.294Z,100425.94
2023-05-21T10:06:50.853Z,100429.22
2023-05-21T10:07:54.656Z,100423.50
2023-05-21T10:09:00.042Z,100422.69
2023-05-21T10:10:04.543Z,100417.41
2023-05-21T10:11:07.361Z,100418.22
2023-05-21T10:12:11.089Z,100413.72
2023-05-21T10:13:15.750Z,100411.69
2023-05-21T10:14:22.882Z,100417.38
2023-05-21T10:15:26.026Z,100412.94
2023-05-21T10:16:29.759Z,100417.78
2023-05-21T10:17:32.729Z,100413.31
2023-05-21T10:18:37.961Z,100420.25
2023-05-21T10:19:41.900Z,100419.44
2023-05-21T10:20:45.246Z,100418.22
2023-05-21T10:21:48.580Z,100418.63
2023-05-21T10:22:52.227Z,100413.34
2023-05-21T10:23:58.138Z,100421.50
2023-05-21T10:25:03.463Z,100414.56
2023-05-21T10:26:07.247Z,100410.47
2023-05-21T10:27:10.503Z,100418.25
2023-05-21T10:28:18.234Z,100418.25
2023-05-21T10:29:21.851Z,100428.84
2023-05-21T10:30:24.881Z,100412.13
2023-05-21T10:31:28.174Z,100430.47
2023-05-21T10:32:31.940Z,100426.00
2023-05-21T10:33:36.082Z,100423.91
2023-05-21T10:34:38.690Z,100425.13
2023-05-21T10:35:41.450Z,100423.47
2023-05-21T10:36:44.944Z,100427.16
2023-05-21T10:37:47.713Z,100416.56
2023-05-21T10:38:50.149Z,100410.44
2023-05-21T10:39:52.696Z,100404.72
2023-05-21T10:40:55.974Z,100405.53
2023-05-21T10:42:12.663Z,100415.69
2023-05-21T10:43:56.802Z,100414.81
2023-05-21T10:45:26.672Z,100402.56
2023-05-21T10:47:09.598Z,100407.84
2023-05-21T10:48:30.055Z,100407.44
2023-05-21T10:49:53.593Z,100403.75
2023-05-21T10:51:08.380Z,100396.44
2023-05-21T10:52:35.605Z,100409.88
2023-05-21T10:53:56.537Z,100407.81
2023-05-21T10:55:23.739Z,100410.19
2023-05-21T10:56:28.834Z,100416.66
2023-05-21T10:58:08.211Z,100418.16
2023-05-21T10:59:15.507Z,100395.66
2023-05-21T11:00:20.710Z,100402.53
2023-05-21T11:01:23.538Z,100404.53
2023-05-21T11:02:27.606Z,100395.06
2023-05-21T11:03:34.102Z,100400.22
2023-05-21T11:04:42.553Z,100395.63
2023-05-21T11:05:57.614Z,100401.22
2023-05-21T11:06:59.956Z,100410.44
2023-05-21T11:08:03.787Z,100396.47
2023-05-21T11:09:15.574Z,100391.47
2023-05-21T11:10:32.349Z,100397.03
2023-05-21T11:11:51.474Z,100400.56
2023-05-21T11:13:16.645Z,100398.78
2023-05-21T11:14:41.051Z,100402.69
2023-05-21T11:15:58.798Z,100403.00
2023-05-21T11:17:07.934Z,100387.53
2023-05-21T11:18:10.367Z,100391.06
2023-05-21T11:19:19.190Z,100393.88
2023-05-21T11:20:23.019Z,100377.97
2023-05-21T11:21:30.696Z,100380.75
2023-05-21T11:22:36.582Z,100382.34
2023-05-21T11:23:51.516Z,100381.94
2023-05-21T11:24:55.710Z,100377.00
2023-05-21T11:26:02.482Z,100388.38
2023-05-21T11:27:07.020Z,100383.91
2023-05-21T11:28:09.785Z,100378.97
2023-05-21T11:29:12.224Z,100383.84
2023-05-21T11:30:19.108Z,100378.56
2023-05-21T11:31:28.106Z,100379.69
2023-05-21T11:32:31.804Z,100386.56
2023-05-21T11:33:34.184Z,100378.88
2023-05-21T11:34:39.829Z,100381.72
2023-05-21T11:35:44.801Z,100383.31
2023-05-21T11:36:48.961Z,100384.88
2023-05-21T11:37:54.320Z,100382.41
2023-05-21T11:39:11.811Z,100393.25
2023-05-21T11:40:30.385Z,100384.75
2023-05-21T11:41:50.334Z,100376.63
2023-05-21T11:42:54.831Z,100381.44
2023-05-21T11:44:03.066Z,100384.19
2023-05-21T11:45:05.903Z,100386.16
2023-05-21T11:46:10.216Z,100381.25
2023-05-21T11:47:21.263Z,100379.63
2023-05-21T11:48:27.119Z,100372.28
2023-05-21T11:49:31.791Z,100377.59
2023-05-21T11:50:35.155Z,100368.66
2023-05-21T11:51:37.942Z,100366.16
2023-05-21T11:52:41.553Z,100376.31
2023-05-21T11:53:44.497Z,100364.91
2023-05-21T11:54:50.950Z,100366.50
2023-05-21T11:55:57.736Z,100371.81
2023-05-21T11:57:03.681Z,100371.44
2023-05-21T11:58:08.753Z,100360.88
2023-05-21T11:59:18.835Z,100373.00
2023-05-21T12:00:22.042Z,100371.75
2023-05-21T12:01:25.006Z,100365.59
2023-05-21T12:02:32.645Z,100369.63
2023-05-21T12:03:35.680Z,100372.00
2023-05-21T12:04:38.338Z,100362.16
2023-05-21T12:05:49.976Z,100373.50
2023-05-21T12:06:53.390Z,100372.25
2023-05-21T12:07:56.839Z,100379.97
2023-05-21T12:08:59.257Z,100372.91
2023-05-21T12:10:01.572Z,100372.50
2023-05-21T12:11:03.918Z,100358.31
2023-05-21T12:12:08.442Z,100375.72
2023-05-21T12:13:10.961Z,100377.72
2023-05-21T12:14:14.238Z,100369.22
2023-05-21T12:15:18.266Z,100381.41
2023-05-21T12:16:21.083Z,100372.03
2023-05-21T12:17:24.791Z,100375.72
2023-05-21T12:18:27.264Z,100387.88
2023-05-21T12:19:33.599Z,100378.09
2023-05-21T12:20:36.061Z,100377.28
2023-05-21T12:21:39.868Z,100387.38
2023-05-21T12:22:44.947Z,100375.50